Time;durP1;ratioP1;P1;durP2;ratioP2;P2;SDS_P1;SDS_P2;PMS_P1;PMS_P2;Temp;Humidity;BMP_temperature;BMP_pressure;BME280_temperature;BME280_humidity;BME280_pressure;Samples;Min_cycle;Max_cycle;Signal;HPM_P1;HPM_P2
2024/03/24 00:02:11;;;;;;;13.90;4.15;;;;;;;10.02;78.11;100500.53;5051423;28;20380;-41
2024/03/24 00:04:36;;;;;;;13.02;4.05;;;;;;;10.23;77.89;100491.22;5051076;28;20053;-40
2024/03/24 00:07:02;;;;;;;15.60;4.40;;;;;;;10.61;76.17;100494.13;5051336;28;20032;-40
2024/03/24 00:09:27;;;;;;;14.35;4.20;;;;;;;10.71;76.32;100490.72;5051256;28;20106;-40
2024/03/24 00:11:52;;;;;;;15.45;4.53;;;;;;;10.32;77.23;100496.50;5051846;28;20028;-41
2024/03/24 00:14:18;;;;;;;14.40;4.35;;;;;;;10.18;78.04;100501.59;5052635;28;20078;-41
2024/03/24 00:16:43;;;;;;;15.82;4.97;;;;;;;10.14;76.93;100507.59;5052199;28;20037;-41
2024/03/24 00:19:08;;;;;;;19.05;4.30;;;;;;;10.39;75.31;100493.94;5052562;28;20032;-42
2024/03/24 00:21:33;;;;;;;17.52;4.40;;;;;;;10.64;73.73;100491.53;5051946;28;20037;-40
2024/03/24 00:24:03;;;;;;;17.38;4.45;;;;;;;10.60;73.33;100489.78;5053061;28;20030;-42
2024/03/24 00:26:29;;;;;;;15.82;4.28;;;;;;;10.85;73.11;100486.47;5051916;28;20045;-41
2024/03/24 00:28:54;;;;;;;14.45;4.47;;;;;;;10.52;73.29;100476.69;5050500;28;20041;-39
2024/03/24 00:31:19;;;;;;;17.35;3.70;;;;;;;10.48;72.52;100480.13;5050383;28;20033;-42
2024/03/24 00:33:45;;;;;;;19.25;4.32;;;;;;;10.73;73.07;100475.97;5078577;22;20059;-45
2024/03/24 00:36:10;;;;;;;13.43;4.32;;;;;;;10.44;75.55;100465.31;5050819;28;20120;-45
2024/03/24 00:38:35;;;;;;;12.25;3.60;;;;;;;10.96;74.68;100472.63;5059916;28;20506;-44
2024/03/24 00:41:01;;;;;;;17.92;4.22;;;;;;;10.44;76.47;100474.00;5071041;28;20040;-44
2024/03/24 00:43:26;;;;;;;15.63;4.45;;;;;;;10.56;75.15;100461.06;5063296;28;20045;-44
2024/03/24 00:45:52;;;;;;;15.95;4.38;;;;;;;10.20;75.07;100473.81;5050339;28;20360;-44
2024/03/24 00:48:17;;;;;;;14.02;3.80;;;;;;;10.51;74.35;100454.06;5051235;28;20056;-44
2024/03/24 00:50:43;;;;;;;15.20;4.22;;;;;;;10.59;73.83;100444.59;5050336;28;20552;-46
2024/03/24 00:53:09;;;;;;;16.83;4.00;;;;;;;10.88;73.40;100455.19;5050440;28;20044;-44
2024/03/24 00:55:34;;;;;;;12.77;3.92;;;;;;;10.66;73.91;100448.97;5050073;28;20525;-45
2024/03/24 00:58:00;;;;;;;15.80;3.70;;;;;;;11.16;72.23;100438.78;5050668;28;20024;-46
2024/03/24 01:00:26;;;;;;;12.63;3.70;;;;;;;11.29;72.06;100437.97;5050616;28;20037;-45
2024/03/24 01:02:51;;;;;;;18.35;4.78;;;;;;;11.05;72.52;100442.22;5049881;28;20066;-43
2024/03/24 01:05:17;;;;;;;17.50;4.13;;;;;;;11.50;71.19;100441.53;5049915;28;20028;-46
2024/03/24 01:07:42;;;;;;;14.50;3.80;;;;;;;10.95;72.75;100428.28;5049941;28;20037;-49
2024/03/24 01:10:08;;;;;;;18.33;4.35;;;;;;;10.84;72.79;100449.09;5050456;28;20702;-46
2024/03/24 01:12:33;;;;;;;17.52;3.65;;;;;;;10.95;72.23;100433.50;5049661;28;20045;-43
2024/03/24 01:14:59;;;;;;;10.80;3.70;;;;;;;10.76;72.57;100439.47;5051562;28;20399;-48
2024/03/24 01:17:24;;;;;;;12.38;3.30;;;;;;;9.86;76.26;100448.31;5051658;28;20059;-44
2024/03/24 01:19:50;;;;;;;11.95;3.75;;;;;;;10.17;78.11;100450.34;5050677;28;20033;-48
2024/03/24 01:22:15;;;;;;;14.15;3.95;;;;;;;10.00;78.35;100439.75;5050866;28;20522;-48
2024/03/24 01:24:40;;;;;;;13.90;4.20;;;;;;;10.17;79.56;100437.34;5050180;28;20033;-46
2024/03/24 01:27:06;;;;;;;15.45;3.80;;;;;;;9.47;82.46;100434.03;5050826;28;20128;-44
2024/03/24 01:29:31;;;;;;;18.38;4.38;;;;;;;9.39;83.82;100434.81;5050446;28;20128;-49
2024/03/24 01:31:56;;;;;;;16.33;4.40;;;;;;;9.78;83.99;100424.78;5051236;28;20036;-44
2024/03/24 01:34:22;;;;;;;20.17;4.45;;;;;;;9.68;83.95;100418.66;5054703;28;20127;-45
2024/03/24 01:36:50;;;;;;;15.55;4.70;;;;;;;9.63;84.98;100411.66;5055457;28;20033;-43
2024/03/24 01:39:15;;;;;;;19.20;4.70;;;;;;;9.89;84.58;100404.94;5055917;28;20029;-45
2024/03/24 01:41:40;;;;;;;14.07;4.20;;;;;;;9.60;84.68;100403.81;5055416;28;20059;-44
2024/03/24 01:44:06;;;;;;;11.95;3.53;;;;;;;9.75;83.74;100397.03;5055100;28;20503;-44
2024/03/24 01:46:31;;;;;;;13.63;4.45;;;;;;;9.88;83.06;100391.94;5056798;28;20069;-43
2024/03/24 01:48:56;;;;;;;15.82;4.13;;;;;;;9.70;84.54;100392.59;5057578;28;20116;-44
2024/03/24 01:51:22;;;;;;;19.65;4.70;;;;;;;9.95;85.05;100372.84;5057899;28;20041;-45
2024/03/24 01:53:49;;;;;;;21.58;4.90;;;;;;;10.12;83.64;100381.69;5057311;28;20033;-42
2024/03/24 01:56:15;;;;;;;20.48;4.63;;;;;;;10.07;83.27;100378.16;5057097;28;20032;-43
2024/03/24 01:58:40;;;;;;;22.83;5.30;;;;;;;10.20;84.01;100379.16;5056545;28;20410;-45
2024/03/24 02:01:06;;;;;;;22.88;5.47;;;;;;;10.07;84.03;100384.25;5056554;28;20036;-45
2024/03/24 02:03:31;;;;;;;14.48;4.57;;;;;;;10.06;82.25;100366.88;5054504;28;20041;-47
2024/03/24 02:05:58;;;;;;;14.68;4.22;;;;;;;10.22;80.80;100365.28;5054841;28;20064;-46
2024/03/24 02:08:23;;;;;;;18.25;4.55;;;;;;;10.17;80.00;100380.03;5055188;28;20075;-45
2024/03/24 02:10:49;;;;;;;14.40;3.85;;;;;;;9.91;80.99;100385.00;5054355;28;20041;-45
2024/03/24 02:13:14;;;;;;;12.98;4.00;;;;;;;10.06;80.94;100361.66;5054447;28;20086;-45
2024/03/24 02:15:39;;;;;;;17.20;4.30;;;;;;;10.04;81.80;100362.53;5053821;28;20107;-44
2024/03/24 02:18:05;;;;;;;14.73;4.47;;;;;;;9.98;81.53;100365.09;5055308;28;20406;-43
2024/03/24 02:20:30;;;;;;;14.23;4.47;;;;;;;9.90;82.89;100365.03;5055214;28;20040;-45
2024/03/24 02:22:55;;;;;;;20.05;5.20;;;;;;;9.89;82.69;100354.59;5055802;28;20037;-47
2024/03/24 02:25:20;;;;;;;16.58;4.93;;;;;;;9.86;82.40;100365.88;5056670;28;20033;-44
2024/03/24 02:27:46;;;;;;;14.32;4.72;;;;;;;10.18;81.83;100366.16;5056631;28;20109;-45
2024/03/24 02:30:11;;;;;;;17.83;4.60;;;;;;;10.07;82.89;100365.13;5054846;28;20033;-44
2024/03/24 02:32:38;;;;;;;28.45;5.45;;;;;;;10.09;81.92;100342.59;5053685;28;20029;-45
2024/03/24 02:35:04;;;;;;;21.40;5.03;;;;;;;10.15;82.25;100356.53;5054183;28;20052;-43
2024/03/24 02:37:29;;;;;;;19.33;5.10;;;;;;;10.31;80.68;100359.25;5054523;28;20047;-44
2024/03/24 02:39:54;;;;;;;16.88;4.90;;;;;;;10.34;80.48;100356.69;5053736;28;20084;-46
2024/03/24 02:42:20;;;;;;;19.95;4.82;;;;;;;10.73;78.73;100359.50;5053926;28;20064;-44
2024/03/24 02:44:45;;;;;;;24.02;5.55;;;;;;;10.40;79.47;100352.38;5051960;28;20045;-45
2024/03/24 02:47:10;;;;;;;20.27;4.75;;;;;;;10.62;78.64;100353.34;5053938;28;20033;-46
2024/03/24 02:49:36;;;;;;;23.80;5.63;;;;;;;10.54;78.12;100355.94;5053245;28;20040;-44
2024/03/24 02:52:01;;;;;;;20.20;4.95;;;;;;;10.57;79.28;100350.72;5052491;28;20029;-45
2024/03/24 02:54:26;;;;;;;18.08;5.15;;;;;;;10.79;78.46;100343.03;5052479;28;20380;-49
2024/03/24 02:56:52;;;;;;;20.60;5.25;;;;;;;10.58;78.06;100351.59;5052404;28;20049;-45
2024/03/24 02:59:18;;;;;;;20.90;5.50;;;;;;;10.57;77.08;100350.72;5053741;28;20403;-44
2024/03/24 03:01:43;;;;;;;19.17;5.30;;;;;;;10.73;76.53;100343.00;5053059;28;20060;-45
2024/03/24 03:04:08;;;;;;;21.60;5.35;;;;;;;10.34;76.89;100352.34;5053280;28;20053;-43
2024/03/24 03:06:34;;;;;;;21.20;5.30;;;;;;;10.52;77.64;100354.19;5054066;28;20037;-49
2024/03/24 03:08:59;;;;;;;18.33;4.93;;;;;;;10.60;76.44;100362.03;5053222;28;20025;-45
2024/03/24 03:11:24;;;;;;;15.77;4.75;;;;;;;10.55;76.51;100375.06;5052693;28;20044;-45
2024/03/24 03:13:50;;;;;;;12.07;2.15;;;;;;;10.14;74.99;100383.44;5051740;28;20036;-45
2024/03/24 03:16:15;;;;;;;8.05;1.45;;;;;;;9.71;75.57;100392.63;5052081;28;20033;-44
2024/03/24 03:18:40;;;;;;;7.95;1.55;;;;;;;9.71;75.55;100397.84;5052688;28;20032;-44
2024/03/24 03:21:05;;;;;;;4.72;1.20;;;;;;;9.78;76.84;100397.03;5054965;28;20055;-48
2024/03/24 03:23:31;;;;;;;4.47;1.20;;;;;;;9.25;78.29;100391.31;5053155;28;20136;-44
2024/03/24 03:25:56;;;;;;;8.77;1.55;;;;;;;9.21;79.29;100393.88;5051309;28;20036;-45
2024/03/24 03:28:21;;;;;;;7.93;1.50;;;;;;;9.35;78.16;100397.47;5052852;28;20037;-45
2024/03/24 03:30:47;;;;;;;7.18;1.48;;;;;;;9.09;79.08;100406.72;5051431;28;20041;-44
2024/03/24 03:33:12;;;;;;;3.67;1.20;;;;;;;9.51;77.44;100407.19;5051553;28;20695;-49
2024/03/24 03:35:37;;;;;;;8.77;1.67;;;;;;;9.31;77.73;100413.91;5050851;28;20514;-46
2024/03/24 03:38:03;;;;;;;5.40;1.60;;;;;;;9.27;78.66;100413.00;5052184;28;20037;-45
2024/03/24 03:40:29;;;;;;;5.70;1.60;;;;;;;9.27;78.94;100412.16;5051809;28;20033;-45
2024/03/24 03:42:54;;;;;;;7.35;1.58;;;;;;;9.23;78.75;100413.81;5051309;28;20525;-44
2024/03/24 03:45:23;;;;;;;6.07;1.80;;;;;;;9.25;80.63;100414.72;5052058;28;20195;-46
2024/03/24 03:47:49;;;;;;;5.47;1.60;;;;;;;9.25;81.26;100416.44;5052510;28;20029;-48
2024/03/24 03:50:17;;;;;;;4.55;1.45;;;;;;;9.23;80.60;100411.22;5052653;28;20083;-49
2024/03/24 03:52:47;;;;;;;9.48;1.70;;;;;;;9.34;81.53;100403.53;5051234;28;20103;-46
2024/03/24 03:55:13;;;;;;;7.05;1.70;;;;;;;9.12;81.61;100394.63;5051475;28;20093;-54
2024/03/24 03:57:39;;;;;;;5.45;1.90;;;;;;;9.30;81.89;100400.03;5051593;28;20040;-45
2024/03/24 04:00:10;;;;;;;6.22;1.90;;;;;;;9.51;79.90;100385.50;5050813;28;20033;-45
2024/03/24 04:02:37;;;;;;;5.75;1.90;;;;;;;9.45;80.95;100395.84;5049948;28;20400;-44
2024/03/24 04:05:03;;;;;;;5.45;2.00;;;;;;;9.27;81.79;100399.97;5051942;28;20166;-46
2024/03/24 04:07:29;;;;;;;7.32;1.92;;;;;;;9.61;80.61;100398.63;5051214;28;20564;-45
2024/03/24 04:09:54;;;;;;;9.27;1.90;;;;;;;9.41;81.77;100414.88;5051294;28;20068;-46
2024/03/24 04:12:19;;;;;;;7.30;1.90;;;;;;;9.20;82.30;100413.81;5051630;28;20115;-46
2024/03/24 04:14:45;;;;;;;6.97;2.10;;;;;;;9.05;82.02;100411.00;5053271;28;20064;-46
2024/03/24 04:17:10;;;;;;;9.15;2.25;;;;;;;8.34;81.14;100421.31;5052997;28;20407;-48
2024/03/24 04:19:35;;;;;;;6.82;2.10;;;;;;;8.92;79.56;100394.38;5052499;28;20065;-45
2024/03/24 04:22:01;;;;;;;6.68;2.17;;;;;;;8.17;81.83;100393.31;5053029;28;20100;-46
2024/03/24 04:24:26;;;;;;;6.45;2.20;;;;;;;8.53;80.74;100389.56;5052842;28;20478;-46
2024/03/24 04:26:51;;;;;;;11.15;2.35;;;;;;;8.59;80.95;100395.69;5051093;28;20052;-47
2024/03/24 04:29:16;;;;;;;9.95;2.20;;;;;;;8.59;80.58;100396.56;5052779;28;20037;-48
2024/03/24 04:31:42;;;;;;;5.85;2.20;;;;;;;9.00;80.21;100388.41;5050804;28;20060;-44
2024/03/24 04:34:08;;;;;;;7.93;2.33;;;;;;;9.43;77.94;100382.81;5052562;28;20033;-45
2024/03/24 04:36:33;;;;;;;8.65;2.30;;;;;;;9.42;77.94;100381.06;5052244;28;20052;-50
2024/03/24 04:38:58;;;;;;;15.93;2.65;;;;;;;9.19;79.43;100382.56;5051735;28;20120;-44
2024/03/24 04:41:23;;;;;;;8.38;2.33;;;;;;;9.22;80.03;100375.66;5050791;28;20037;-48
2024/03/24 04:43:49;;;;;;;7.57;2.17;;;;;;;9.49;78.62;100369.88;5051372;28;20059;-45
2024/03/24 04:46:14;;;;;;;6.97;2.22;;;;;;;9.65;78.16;100374.34;5053050;28;20033;-46
2024/03/24 04:48:39;;;;;;;9.10;2.60;;;;;;;9.87;77.46;100366.75;5052780;28;20037;-49
2024/03/24 04:51:04;;;;;;;11.68;2.40;;;;;;;9.75;79.27;100373.59;5053078;28;20036;-45
2024/03/24 04:53:30;;;;;;;8.23;2.42;;;;;;;9.60;79.74;100373.44;5051871;28;20130;-44
2024/03/24 04:55:55;;;;;;;11.52;2.70;;;;;;;9.53;80.47;100363.84;5052074;28;20039;-45
2024/03/24 04:58:20;;;;;;;11.48;3.13;;;;;;;9.40;82.18;100364.56;5052648;28;20045;-45
2024/03/24 05:00:46;;;;;;;15.30;3.92;;;;;;;9.04;83.75;100375.44;5052197;28;20079;-47
2024/03/24 05:03:11;;;;;;;16.88;4.22;;;;;;;9.37;84.07;100369.75;5050127;28;20474;-46
2024/03/24 05:05:38;;;;;;;26.40;5.28;;;;;;;9.50;83.53;100370.75;5049702;28;20492;-45
2024/03/24 05:08:04;;;;;;;17.70;5.15;;;;;;;9.47;83.13;100379.38;5049866;28;20079;-45
2024/03/24 05:10:29;;;;;;;16.48;5.13;;;;;;;9.92;82.18;100370.25;5050210;28;20610;-44
2024/03/24 05:12:54;;;;;;;24.63;5.90;;;;;;;10.05;82.04;100375.56;5049433;28;20403;-48
2024/03/24 05:15:20;;;;;;;17.02;5.57;;;;;;;9.83;80.84;100383.19;5049990;28;20092;-45
2024/03/24 05:17:45;;;;;;;22.13;5.70;;;;;;;9.94;80.11;100379.78;5049887;28;20048;-45
2024/03/24 05:20:10;;;;;;;20.83;5.65;;;;;;;10.04;79.40;100378.16;5050492;28;20112;-47
2024/03/24 05:22:36;;;;;;;19.20;5.18;;;;;;;9.60;79.72;100382.97;5049275;28;20124;-47
2024/03/24 05:25:04;;;;;;;19.33;4.65;;;;;;;9.92;78.28;100391.06;5049809;28;20052;-45
2024/03/24 05:27:29;;;;;;;18.70;5.22;;;;;;;9.99;78.85;100393.75;5050253;28;20037;-44
2024/03/24 05:29:54;;;;;;;17.58;5.03;;;;;;;10.07;76.89;100391.19;5050118;28;20380;-46
2024/03/24 05:32:20;;;;;;;16.88;5.15;;;;;;;9.87;77.60;100390.19;5049832;28;20124;-43
2024/03/24 05:34:47;;;;;;;17.48;4.82;;;;;;;10.02;77.00;100390.28;5049174;28;20029;-46
2024/03/24 05:37:13;;;;;;;14.80;5.20;;;;;;;10.25;76.90;100404.38;5049974;28;20036;-47
2024/03/24 05:39:38;;;;;;;22.73;5.00;;;;;;;10.00;77.13;100407.66;5052677;28;20033;-44
2024/03/24 05:42:03;;;;;;;22.30;5.03;;;;;;;10.15;76.87;100407.75;5051517;28;20033;-46
2024/03/24 05:44:29;;;;;;;18.17;5.30;;;;;;;9.94;76.89;100407.59;5049543;28;20042;-46
2024/03/24 05:46:55;;;;;;;18.70;4.85;;;;;;;10.11;77.00;100400.78;5050391;28;20029;-45
2024/03/24 05:49:20;;;;;;;21.05;5.30;;;;;;;10.13;75.84;100405.13;5052625;28;20047;-46
2024/03/24 05:51:45;;;;;;;18.08;4.80;;;;;;;10.00;76.40;100405.88;5052837;28;20043;-44
2024/03/24 05:54:11;;;;;;;17.95;5.15;;;;;;;9.75;77.36;100420.44;5052400;28;20025;-43
2024/03/24 05:56:36;;;;;;;25.02;5.30;;;;;;;9.64;77.71;100418.56;5051820;28;20061;-46
2024/03/24 05:59:02;;;;;;;21.08;5.32;;;;;;;9.95;77.01;100411.91;5051811;28;20037;-45
2024/03/24 06:01:27;;;;;;;18.65;5.10;;;;;;;9.90;76.61;100418.81;5052680;28;20471;-43
2024/03/24 06:03:52;;;;;;;20.40;5.22;;;;;;;10.10;76.24;100425.09;5051967;28;20055;-51
2024/03/24 06:06:18;;;;;;;15.82;4.45;;;;;;;10.11;75.60;100421.63;5052331;28;20105;-44
2024/03/24 06:08:43;;;;;;;18.33;4.53;;;;;;;10.17;74.77;100416.50;5051594;28;20083;-45
2024/03/24 06:11:09;;;;;;;16.95;4.53;;;;;;;10.20;73.82;100419.09;5050265;28;20049;-45
2024/03/24 06:13:34;;;;;;;18.95;4.40;;;;;;;10.35;73.05;100424.44;5048658;28;20056;-44
2024/03/24 06:16:01;;;;;;;23.85;4.72;;;;;;;10.09;74.46;100418.13;5049672;28;20150;-45
2024/03/24 06:18:26;;;;;;;18.42;4.68;;;;;;;9.75;74.48;100436.06;5050197;28;20060;-44
2024/03/24 06:20:53;;;;;;;16.45;4.35;;;;;;;10.05;73.74;100432.00;5052684;28;20076;-45
2024/03/24 06:23:19;;;;;;;12.45;4.25;;;;;;;9.91;73.26;100447.50;5052685;28;20068;-44
2024/03/24 06:25:44;;;;;;;17.15;4.53;;;;;;;9.58;73.68;100424.59;5052670;28;20456;-45
2024/03/24 06:28:09;;;;;;;14.50;4.30;;;;;;;9.99;72.48;100427.59;5053207;28;20047;-46
2024/03/24 06:30:35;;;;;;;18.83;4.53;;;;;;;10.03;72.24;100426.75;5053106;28;20033;-46
2024/03/24 06:33:00;;;;;;;18.85;4.20;;;;;;;10.54;70.99;100430.66;5052653;28;20037;-45
2024/03/24 06:35:25;;;;;;;19.40;4.47;;;;;;;10.04;71.92;100427.63;5052910;28;20029;-46
2024/03/24 06:37:50;;;;;;;17.88;4.10;;;;;;;10.74;70.49;100438.56;5052407;28;20079;-45
2024/03/24 06:40:16;;;;;;;14.25;4.10;;;;;;;10.50;68.91;100437.56;5052644;28;20047;-46
2024/03/24 06:42:48;;;;;;;15.40;3.90;;;;;;;11.07;66.50;100428.31;5053413;28;20071;-44
2024/03/24 06:45:14;;;;;;;13.32;3.83;;;;;;;11.07;66.50;100430.06;5054395;28;20033;-42
2024/03/24 06:47:39;;;;;;;15.05;3.60;;;;;;;11.99;64.39;100429.44;5053669;28;20043;-45
2024/03/24 06:50:06;;;;;;;13.98;3.58;;;;;;;12.10;63.58;100433.81;5052888;28;20033;-44
2024/03/24 06:52:32;;;;;;;14.45;4.20;;;;;;;12.21;61.91;100425.94;5052555;28;20067;-44
2024/03/24 06:54:58;;;;;;;12.20;3.80;;;;;;;11.59;64.93;100431.97;5053479;28;20044;-45
2024/03/24 06:57:23;;;;;;;19.05;4.05;;;;;;;12.32;63.15;100439.03;5054076;28;20029;-45
2024/03/24 06:59:48;;;;;;;13.70;3.20;;;;;;;12.35;62.01;100432.06;5053134;28;20040;-45
2024/03/24 07:02:14;;;;;;;14.65;3.40;;;;;;;13.16;58.59;100424.91;5052231;28;20049;-45
2024/03/24 07:04:39;;;;;;;17.55;3.40;;;;;;;13.24;55.93;100423.09;5052830;28;20040;-44
2024/03/24 07:07:05;;;;;;;14.48;3.70;;;;;;;13.13;57.50;100418.78;5051808;28;20032;-45
2024/03/24 07:09:30;;;;;;;14.35;3.80;;;;;;;12.40;60.04;100429.44;5052846;28;20037;-44
2024/03/24 07:11:56;;;;;;;17.40;3.88;;;;;;;12.26;60.80;100425.97;5051933;28;20029;-44
2024/03/24 07:14:21;;;;;;;16.27;3.65;;;;;;;11.98;63.70;100446.00;5051942;28;20029;-46
2024/03/24 07:16:46;;;;;;;21.40;4.43;;;;;;;11.68;65.43;100439.81;5052143;28;20067;-44
2024/03/24 07:19:12;;;;;;;15.80;3.85;;;;;;;12.53;62.00;100434.66;5052554;28;20120;-43
2024/03/24 07:21:38;;;;;;;14.43;3.40;;;;;;;11.96;61.85;100439.88;5052679;28;20032;-47
2024/03/24 07:24:03;;;;;;;18.55;3.78;;;;;;;12.50;60.33;100439.03;5051772;28;20040;-44
2024/03/24 07:26:28;;;;;;;9.38;3.15;;;;;;;12.69;57.63;100453.78;5051583;28;20730;-48
2024/03/24 07:28:53;;;;;;;13.05;3.15;;;;;;;12.52;59.60;100453.81;5051496;28;20115;-47
2024/03/24 07:31:19;;;;;;;13.45;3.35;;;;;;;11.72;61.69;100456.34;5051426;28;20033;-46
2024/03/24 07:33:45;;;;;;;12.30;3.45;;;;;;;12.18;61.78;100458.19;5050988;28;20140;-47
2024/03/24 07:36:11;;;;;;;15.43;3.58;;;;;;;11.51;64.41;100453.72;5052873;28;20029;-46
2024/03/24 07:38:37;;;;;;;14.90;3.80;;;;;;;10.75;70.86;100456.84;5052243;28;20488;-44
2024/03/24 07:41:02;;;;;;;17.27;3.55;;;;;;;11.29;70.27;100457.97;5053039;28;20070;-46
2024/03/24 07:43:27;;;;;;;17.35;3.90;;;;;;;11.22;69.59;100461.44;5048068;28;20503;-45
2024/03/24 07:45:53;;;;;;;14.63;3.55;;;;;;;10.98;70.06;100462.19;5051850;28;20112;-46
2024/03/24 07:48:18;;;;;;;14.63;3.83;;;;;;;11.29;69.73;100458.84;5052413;28;20032;-44
2024/03/24 07:50:43;;;;;;;19.80;3.92;;;;;;;10.78;71.00;100462.09;5052248;28;20491;-44
2024/03/24 07:53:09;;;;;;;17.73;3.60;;;;;;;11.31;68.70;100448.41;5050771;28;20060;-46
2024/03/24 07:55:35;;;;;;;15.32;3.72;;;;;;;10.83;67.57;100462.09;5051184;28;20384;-44
2024/03/24 07:58:00;;;;;;;16.60;3.63;;;;;;;10.79;68.34;100448.19;5050985;28;20090;-47
2024/03/24 08:00:26;;;;;;;13.38;4.00;;;;;;;10.81;69.52;100467.31;5051086;28;20522;-45
2024/03/24 08:02:51;;;;;;;15.80;3.30;;;;;;;10.63;68.11;100488.03;5050158;28;20106;-46
2024/03/24 08:05:16;;;;;;;22.02;4.57;;;;;;;11.01;67.58;100472.63;5050464;28;20112;-45
2024/03/24 08:07:41;;;;;;;11.65;3.67;;;;;;;10.74;69.33;100478.56;5050718;28;20060;-46
2024/03/24 08:10:07;;;;;;;17.67;3.65;;;;;;;10.48;69.53;100472.31;5050947;28;20484;-44
2024/03/24 08:12:32;;;;;;;17.88;3.67;;;;;;;10.82;68.21;100476.00;5049814;28;20132;-46
2024/03/24 08:14:58;;;;;;;18.10;3.78;;;;;;;11.37;67.20;100478.03;5050268;28;20033;-49
2024/03/24 08:17:23;;;;;;;16.50;3.10;;;;;;;11.32;66.81;100473.66;5050803;28;20036;-44
2024/03/24 08:19:53;;;;;;;13.60;3.33;;;;;;;11.31;66.86;100483.22;5051063;28;20125;-45
2024/03/24 08:22:19;;;;;;;16.65;3.33;;;;;;;11.09;67.30;100475.28;5050351;28;20037;-44
2024/03/24 08:24:45;;;;;;;13.80;3.15;;;;;;;11.26;65.68;100479.72;5050238;28;20477;-47
2024/03/24 08:27:11;;;;;;;14.68;3.83;;;;;;;11.13;66.42;100483.13;5051407;28;20029;-44
2024/03/24 08:29:36;;;;;;;17.77;3.78;;;;;;;11.03;66.52;100481.34;5050960;28;20091;-45
2024/03/24 08:32:02;;;;;;;16.40;3.70;;;;;;;10.85;67.50;100465.59;5051646;28;20508;-44
2024/03/24 08:34:27;;;;;;;19.20;3.88;;;;;;;11.27;68.20;100485.81;5050251;28;20068;-45
2024/03/24 08:36:52;;;;;;;18.30;3.63;;;;;;;11.15;67.47;100489.25;5050576;28;20059;-46
2024/03/24 08:39:18;;;;;;;21.23;3.80;;;;;;;11.29;66.98;100481.44;5050768;28;20111;-45
2024/03/24 08:41:43;;;;;;;17.65;3.45;;;;;;;11.76;65.29;100503.44;5049709;28;20553;-44
2024/03/24 08:44:10;;;;;;;16.30;3.35;;;;;;;11.21;66.44;100499.72;5049857;28;20033;-45
2024/03/24 08:46:35;;;;;;;21.95;3.70;;;;;;;10.81;69.81;100506.41;5050259;28;20036;-46
2024/03/24 08:49:01;;;;;;;19.92;2.70;;;;;;;10.43;72.55;100541.78;5051784;28;20037;-44
2024/03/24 08:51:26;;;;;;;3.58;1.05;;;;;;;9.96;74.23;100531.72;5053381;28;20068;-46
2024/03/24 08:53:52;;;;;;;5.05;1.20;;;;;;;9.20;77.68;100546.44;5051805;28;20178;-46
2024/03/24 08:56:17;;;;;;;5.72;1.00;;;;;;;9.17;78.93;100545.50;5052366;28;20058;-45
2024/03/24 08:58:42;;;;;;;3.60;1.20;;;;;;;9.09;80.03;100552.34;5050364;28;20041;-45
2024/03/24 09:01:07;;;;;;;3.40;1.20;;;;;;;9.30;79.76;100537.91;5051455;28;20029;-44
2024/03/24 09:03:34;;;;;;;5.82;1.40;;;;;;;9.40;79.48;100528.47;5049377;28;20088;-49
2024/03/24 09:05:59;;;;;;;6.90;1.63;;;;;;;9.26;80.90;100532.66;5050254;28;20048;-47
2024/03/24 09:08:25;;;;;;;5.13;1.45;;;;;;;9.72;80.58;100523.66;5051460;28;20574;-46
2024/03/24 09:10:51;;;;;;;11.88;2.13;;;;;;;9.82;81.94;100522.03;5050367;28;20060;-45
2024/03/24 09:13:17;;;;;;;9.52;2.13;;;;;;;10.72;79.54;100527.22;5050001;28;20029;-45
2024/03/24 09:15:42;;;;;;;14.13;2.72;;;;;;;10.89;78.86;100527.34;5049825;28;20455;-44
2024/03/24 09:18:07;;;;;;;11.18;2.50;;;;;;;11.05;78.46;100536.13;5050740;28;20483;-45
2024/03/24 09:20:35;;;;;;;12.38;2.58;;;;;;;11.47;77.64;100525.03;5049656;28;20068;-45
2024/03/24 09:23:00;;;;;;;18.20;3.05;;;;;;;10.77;77.60;100533.34;5049450;28;20061;-45
2024/03/24 09:25:26;;;;;;;16.38;3.20;;;;;;;10.79;78.24;100530.75;5049871;28;20696;-45
2024/03/24 09:27:51;;;;;;;16.08;2.60;;;;;;;10.83;76.67;100532.53;5050218;28;20047;-44
2024/03/24 09:30:17;;;;;;;16.70;2.70;;;;;;;11.07;75.64;100537.00;5049999;28;20039;-45
2024/03/24 09:32:42;;;;;;;16.85;2.53;;;;;;;10.79;74.91;100539.47;5049092;28;20025;-49
2024/03/24 09:35:08;;;;;;;15.80;2.50;;;;;;;10.95;74.22;100546.50;5050058;28;20029;-47
2024/03/24 09:37:33;;;;;;;10.48;2.25;;;;;;;10.71;74.68;100543.72;5049214;28;20044;-47
2024/03/24 09:39:59;;;;;;;18.55;2.50;;;;;;;11.19;72.59;100548.41;5049935;28;20087;-43
2024/03/24 09:42:27;;;;;;;13.05;2.42;;;;;;;10.95;73.47;100546.50;5050013;28;20123;-45
2024/03/24 09:44:53;;;;;;;13.13;2.47;;;;;;;10.96;72.54;100545.66;5050108;28;20064;-44
2024/03/24 09:47:20;;;;;;;13.65;2.88;;;;;;;10.78;73.11;100542.91;5050973;28;20103;-44
2024/03/24 09:49:47;;;;;;;17.80;3.40;;;;;;;11.14;71.49;100551.84;5050559;28;20052;-46
2024/03/24 09:52:16;;;;;;;20.67;3.33;;;;;;;11.12;71.61;100549.22;5050130;28;20459;-44
2024/03/24 09:54:41;;;;;;;15.43;3.03;;;;;;;10.96;73.55;100558.69;5053316;28;20541;-44
2024/03/24 09:57:07;;;;;;;14.40;3.08;;;;;;;10.98;74.33;100561.28;5056075;28;20111;-44
2024/03/24 09:59:36;;;;;;;22.50;3.53;;;;;;;10.99;74.86;100560.44;5055237;28;20037;-47
2024/03/24 10:02:01;;;;;;;14.32;3.17;;;;;;;10.72;74.94;100555.91;5053887;28;20033;-45
2024/03/24 10:04:27;;;;;;;21.45;3.83;;;;;;;10.83;74.70;100563.81;5054409;28;20082;-42
2024/03/24 10:06:52;;;;;;;17.90;3.60;;;;;;;10.91;75.13;100557.81;5055772;28;20294;-44
2024/03/24 10:09:17;;;;;;;21.63;3.78;;;;;;;11.23;74.29;100560.59;5056133;28;20032;-45
2024/03/24 10:11:43;;;;;;;19.80;3.83;;;;;;;11.36;74.21;100557.19;5055421;28;20037;-43
2024/03/24 10:14:08;;;;;;;25.58;4.13;;;;;;;11.26;73.79;100558.00;5054447;28;20121;-47
2024/03/24 10:16:33;;;;;;;23.60;3.92;;;;;;;11.19;73.87;100561.44;5052657;28;20033;-46
2024/03/24 10:19:10;;;;;;;24.95;3.85;;;;;;;11.85;71.51;100549.56;5053778;28;20043;-44
2024/03/24 10:21:37;;;;;;;20.25;3.65;;;;;;;11.22;71.49;100558.84;5053017;28;20041;-44
2024/03/24 10:24:02;;;;;;;20.05;4.40;;;;;;;11.20;71.99;100584.06;5052252;28;20135;-44
2024/03/24 10:26:29;;;;;;;13.38;2.50;;;;;;;10.84;74.29;100589.91;5053638;28;20124;-45
2024/03/24 10:28:55;;;;;;;8.38;2.15;;;;;;;10.83;73.43;100587.28;5053545;28;20690;-44
2024/03/24 10:31:20;;;;;;;8.45;1.73;;;;;;;11.00;72.78;100580.44;5054209;28;20033;-45
2024/03/24 10:33:45;;;;;;;13.43;2.83;;;;;;;10.74;75.32;100579.38;5051629;28;20048;-48
2024/03/24 10:36:11;;;;;;;17.58;3.00;;;;;;;11.23;74.88;100564.94;5052478;28;20037;-44
2024/03/24 10:38:37;;;;;;;13.60;3.10;;;;;;;11.85;74.43;100570.47;5052400;28;20365;-47
2024/03/24 10:41:08;;;;;;;16.38;3.40;;;;;;;11.77;74.13;100575.66;5053694;28;20032;-46
2024/03/24 10:43:37;;;;;;;18.45;3.47;;;;;;;11.94;72.44;100572.25;5052430;28;20525;-45
2024/03/24 10:46:03;;;;;;;17.08;3.00;;;;;;;12.37;72.18;100561.03;5052764;28;20037;-49
2024/03/24 10:48:32;;;;;;;15.25;3.75;;;;;;;12.22;70.51;100570.56;5051161;28;20033;-46
2024/03/24 10:51:00;;;;;;;20.58;3.15;;;;;;;12.37;68.39;100574.09;5052339;28;20115;-45
2024/03/24 10:53:31;;;;;;;16.50;2.83;;;;;;;11.56;68.55;100578.16;5051655;28;20037;-48
2024/03/24 10:55:58;;;;;;;16.23;3.03;;;;;;;11.71;69.28;100577.38;5053365;28;20087;-45
2024/03/24 10:58:24;;;;;;;13.80;3.10;;;;;;;11.47;69.96;100580.72;5054414;28;20491;-45
2024/03/24 11:00:50;;;;;;;18.92;3.28;;;;;;;12.07;68.66;100587.09;5053576;28;20041;-46
2024/03/24 11:03:18;;;;;;;14.73;2.83;;;;;;;12.32;67.65;100581.03;5051721;28;20407;-46
2024/03/24 11:05:48;;;;;;;22.80;3.53;;;;;;;12.13;68.91;100584.50;5050335;28;20555;-45
2024/03/24 11:08:15;;;;;;;14.52;3.03;;;;;;;12.02;69.72;100596.66;5052154;28;20085;-44
2024/03/24 11:11:00;;;;;;;17.13;3.42;;;;;;;12.19;69.06;100593.25;5052414;28;20037;-45
2024/03/24 11:13:29;;;;;;;20.88;4.18;;;;;;;12.11;68.74;100618.47;5051711;28;20037;-48
2024/03/24 11:15:56;;;;;;;18.30;3.53;;;;;;;11.73;73.60;100606.97;5051677;28;20029;-46